Time,TemperatureF,DewpointF,PressureIn,WindDirection,WindDirectionDegrees,WindSpeedMPH,WindSpeedGustMPH,Humidity,HourlyPrecipIn,Conditions,Clouds,dailyrainin,SoftwareType,DateUTC
2013-02-11 00:10:00,18.1,10.0,30.26,SSE,162,0.0,-999.0,70,-99.99,,,0.04,weatherlink.com 1.10,2013-02-11 05:10:00,
2013-02-11 00:24:00,18.6,10.0,30.25,SSE,162,0.0,-999.0,70,-99.99,,,0.04,weatherlink.com 1.10,2013-02-11 05:24:00,
2013-02-11 00:39:00,18.8,11.0,30.23,SSE,162,0.0,-999.0,71,-99.99,,,0.04,weatherlink.com 1.10,2013-02-11 05:39:00,
2013-02-11 00:54:00,18.9,11.0,30.23,SSE,162,0.0,-999.0,72,-99.99,,,0.04,weatherlink.com 1.10,2013-02-11 05:54:00,
2013-02-11 01:10:00,19.0,12.0,30.22,SSE,162,0.0,-999.0,73,-99.99,,,0.04,weatherlink.com 1.10,2013-02-11 06:10:00,
2013-02-11 01:24:00,19.3,11.0,30.22,SSE,162,0.0,-999.0,71,-99.99,,,0.00,weatherlink.com 1.10,2013-02-11 06:24:00,
2013-02-11 01:39:00,19.7,12.0,30.21,SSE,162,0.0,-999.0,72,-99.99,,,0.00,weatherlink.com 1.10,2013-02-11 06:39:00,
2013-02-11 01:54:00,19.7,12.0,30.20,SSE,162,0.0,-999.0,73,-99.99,,,0.00,weatherlink.com 1.10,2013-02-11 06:54:00,
2013-02-11 02:10:00,19.4,12.0,30.20,SSE,162,0.0,-999.0,73,-99.99,,,0.00,weatherlink.com 1.10,2013-02-11 07:10:00,
2013-02-11 02:25:00,19.3,12.0,30.19,SSE,162,0.0,-999.0,74,-99.99,,,0.00,weatherlink.com 1.10,2013-02-11 07:25:00,
2013-02-11 02:40:00,19.4,13.0,30.19,SSE,162,0.0,-999.0,75,-99.99,,,0.00,weatherlink.com 1.10,2013-02-11 07:40:00,
2013-02-11 02:55:00,19.8,13.0,30.18,SSE,162,1.0,-999.0,76,-99.99,,,0.00,weatherlink.com 1.10,2013-02-11 07:55:00,
2013-02-11 03:10:00,23.7,15.0,30.16,WNW,288,0.0,-999.0,69,-99.99,,,0.00,weatherlink.com 1.10,2013-02-11 08:10:00,
2013-02-11 03:25:00,27.0,16.0,30.15,WSW,257,3.0,-999.0,63,-99.99,,,0.00,weatherlink.com 1.10,2013-02-11 08:25:00,
2013-02-11 03:42:00,29.2,16.0,30.14,West,270,2.0,-999.0,59,-99.99,,,0.00,weatherlink.com 1.10,2013-02-11 08:42:00,
2013-02-11 03:59:00,29.9,17.0,30.13,West,269,4.0,-999.0,58,-99.99,,,0.00,weatherlink.com 1.10,2013-02-11 08:59:00,
2013-02-11 04:10:00,30.6,18.0,30.12,WNW,284,4.0,-999.0,59,-99.99,,,0.00,weatherlink.com 1.10,2013-02-11 09:10:00,
2013-02-11 04:25:00,31.5,18.0,30.12,West,280,10.0,-999.0,58,-99.99,,,0.00,weatherlink.com 1.10,2013-02-11 09:25:00,
2013-02-11 04:41:00,31.8,19.0,30.11,NW,319,2.0,-999.0,59,-99.99,,,0.00,weatherlink.com 1.10,2013-02-11 09:41:00,
2013-02-11 04:55:00,31.7,20.0,30.11,West,267,3.0,-999.0,61,-99.99,,,0.00,weatherlink.com 1.10,2013-02-11 09:55:00,
2013-02-11 05:10:00,31.6,20.0,30.11,WNW,290,16.0,-999.0,63,-99.99,,,0.00,weatherlink.com 1.10,2013-02-11 10:10:00,
2013-02-11 05:26:00,32.1,21.0,30.09,WNW,286,5.0,-999.0,63,-99.99,,,0.00,weatherlink.com 1.10,2013-02-11 10:26:00,
2013-02-11 05:41:00,32.2,21.0,30.07,WNW,296,2.0,-999.0,63,-99.99,,,0.00,weatherlink.com 1.10,2013-02-11 10:41:00,
2013-02-11 05:55:00,32.4,20.0,30.06,West,267,6.0,-999.0,61,-99.99,,,0.00,weatherlink.com 1.10,2013-02-11 10:55:00,
2013-02-11 06:10:00,32.8,20.0,30.06,WNW,282,4.0,-999.0,59,-99.99,,,0.00,weatherlink.com 1.10,2013-02-11 11:10:00,
2013-02-11 06:26:00,32.9,21.0,30.05,West,261,1.0,-999.0,62,-99.99,,,0.00,weatherlink.com 1.10,2013-02-11 11:26:00,
2013-02-11 06:41:00,33.3,24.0,30.03,West,281,10.0,-999.0,69,-99.99,,,0.00,weatherlink.com 1.10,2013-02-11 11:41:00,
2013-02-11 06:55:00,33.6,26.0,30.03,WNW,298,3.0,-999.0,73,-99.99,,,0.00,weatherlink.com 1.10,2013-02-11 11:55:00,
2013-02-11 07:10:00,33.3,27.0,30.03,SW,223,2.0,-999.0,79,-99.99,,,0.00,weatherlink.com 1.10,2013-02-11 12:10:00,
2013-02-11 07:26:00,33.0,29.0,30.02,SSW,203,8.0,-999.0,84,-99.99,,,0.00,weatherlink.com 1.10,2013-02-11 12:26:00,
2013-02-11 07:41:00,33.0,29.0,30.01,WNW,302,10.0,-999.0,86,-99.99,,,0.00,weatherlink.com 1.10,2013-02-11 12:41:00,
2013-02-11 07:57:00,33.2,30.0,30.00,West,259,8.0,-999.0,88,-99.99,,,0.00,weatherlink.com 1.10,2013-02-11 12:57:00,
2013-02-11 08:12:00,33.3,30.0,30.00,West,273,7.0,-999.0,89,-99.99,,,0.00,weatherlink.com 1.10,2013-02-11 13:12:00,
2013-02-11 08:26:00,33.3,30.0,29.98,NW,326,6.0,-999.0,89,-99.99,,,0.00,weatherlink.com 1.10,2013-02-11 13:26:00,
2013-02-11 08:42:00,33.5,31.0,29.98,SSW,202,9.0,-999.0,90,-99.99,,,0.00,weatherlink.com 1.10,2013-02-11 13:42:00,
2013-02-11 08:57:00,33.3,31.0,29.97,NNW,329,9.0,-999.0,90,-99.99,,,0.00,weatherlink.com 1.10,2013-02-11 13:57:00,
2013-02-11 09:11:00,32.8,31.0,29.95,WNW,290,9.0,-999.0,91,-99.99,,,0.00,weatherlink.com 1.10,2013-02-11 14:11:00,
2013-02-11 09:27:00,33.7,32.0,29.94,West,264,9.0,-999.0,92,-99.99,,,0.00,weatherlink.com 1.10,2013-02-11 14:27:00,
2013-02-11 09:41:00,34.6,32.0,29.93,West,277,9.0,-999.0,91,-99.99,,,0.00,weatherlink.com 1.10,2013-02-11 14:41:00,
2013-02-11 09:56:00,35.3,33.0,29.91,WNW,301,15.0,-999.0,90,-99.99,,,0.00,weatherlink.com 1.10,2013-02-11 14:56:00,
2013-02-11 10:13:00,35.7,33.0,29.90,West,269,7.0,-999.0,90,-99.99,,,0.01,weatherlink.com 1.10,2013-02-11 15:13:00,
2013-02-11 10:26:00,35.8,34.0,29.89,WNW,290,12.0,-999.0,91,-99.99,,,0.01,weatherlink.com 1.10,2013-02-11 15:26:00,
2013-02-11 10:42:00,35.5,33.0,29.87,NW,307,13.0,-999.0,92,-99.99,,,0.01,weatherlink.com 1.10,2013-02-11 15:42:00,
2013-02-11 10:56:00,35.5,33.0,29.85,WNW,282,0.0,-999.0,92,-99.99,,,0.01,weatherlink.com 1.10,2013-02-11 15:56:00,
2013-02-11 11:12:00,35.9,34.0,29.86,West,277,5.0,-999.0,92,-99.99,,,0.01,weatherlink.com 1.10,2013-02-11 16:12:00,
2013-02-11 11:27:00,36.2,34.0,29.85,West,269,5.0,-999.0,91,-99.99,,,0.01,weatherlink.com 1.10,2013-02-11 16:27:00,
2013-02-11 11:42:00,36.4,34.0,29.85,WNW,292,4.0,-999.0,91,-99.99,,,0.01,weatherlink.com 1.10,2013-02-11 16:42:00,
2013-02-11 11:57:00,36.7,34.0,29.84,WNW,297,4.0,-999.0,91,-99.99,,,0.01,weatherlink.com 1.10,2013-02-11 16:57:00,
2013-02-11 12:12:00,36.9,34.0,29.81,WNW,287,8.0,-999.0,90,-99.99,,,0.01,weatherlink.com 1.10,2013-02-11 17:12:00,
2013-02-11 12:28:00,37.3,35.0,29.80,WNW,286,3.0,-999.0,90,-99.99,,,0.02,weatherlink.com 1.10,2013-02-11 17:28:00,
2013-02-11 12:42:00,37.8,35.0,29.78,WNW,302,4.0,-999.0,90,-99.99,,,0.02,weatherlink.com 1.10,2013-02-11 17:42:00,
2013-02-11 12:57:00,38.0,35.0,29.77,NW,304,5.0,-999.0,90,-99.99,,,0.03,weatherlink.com 1.10,2013-02-11 17:57:00,
2013-02-11 13:13:00,38.2,36.0,29.77,West,280,9.0,-999.0,90,-99.99,,,0.03,weatherlink.com 1.10,2013-02-11 18:13:00,
2013-02-11 13:27:00,38.3,36.0,29.76,WNW,298,11.0,-999.0,90,-99.99,,,0.03,weatherlink.com 1.10,2013-02-11 18:27:00,
2013-02-11 13:42:00,38.3,36.0,29.74,NNW,331,5.0,-999.0,90,-99.99,,,0.03,weatherlink.com 1.10,2013-02-11 18:42:00,
2013-02-11 13:57:00,38.7,36.0,29.73,NW,305,5.0,-999.0,90,-99.99,,,0.03,weatherlink.com 1.10,2013-02-11 18:57:00,
2013-02-11 14:12:00,38.8,36.0,29.71,North,355,7.0,-999.0,91,-99.99,,,0.03,weatherlink.com 1.10,2013-02-11 19:12:00,
2013-02-11 14:27:00,39.1,37.0,29.70,WNW,298,17.0,-999.0,91,-99.99,,,0.03,weatherlink.com 1.10,2013-02-11 19:27:00,
2013-02-11 14:43:00,39.4,37.0,29.70,NW,304,11.0,-999.0,91,-99.99,,,0.03,weatherlink.com 1.10,2013-02-11 19:43:00,
2013-02-11 14:57:00,39.5,37.0,29.71,NW,315,6.0,-999.0,91,-99.99,,,0.03,weatherlink.com 1.10,2013-02-11 19:57:00,
2013-02-11 15:13:00,39.4,37.0,29.71,WNW,302,8.0,-999.0,90,-99.99,,,0.03,weatherlink.com 1.10,2013-02-11 20:13:00,
2013-02-11 15:27:00,39.5,37.0,29.70,NW,325,11.0,-999.0,90,-99.99,,,0.03,weatherlink.com 1.10,2013-02-11 20:27:00,
2013-02-11 15:43:00,39.6,37.0,29.70,NW,325,6.0,-999.0,90,-99.99,,,0.03,weatherlink.com 1.10,2013-02-11 20:43:00,
2013-02-11 15:58:00,39.6,37.0,29.70,NW,304,5.0,-999.0,90,-99.99,,,0.03,weatherlink.com 1.10,2013-02-11 20:58:00,
2013-02-11 16:12:00,39.5,37.0,29.68,WNW,285,7.0,-999.0,91,-99.99,,,0.03,weatherlink.com 1.10,2013-02-11 21:12:00,
2013-02-11 16:28:00,39.4,37.0,29.67,WNW,298,8.0,-999.0,91,-99.99,,,0.03,weatherlink.com 1.10,2013-02-11 21:28:00,
2013-02-11 16:44:00,39.6,37.0,29.66,NW,313,8.0,-999.0,91,-99.99,,,0.03,weatherlink.com 1.10,2013-02-11 21:44:00,
2013-02-11 16:59:00,39.8,37.0,29.66,NNW,342,11.0,-999.0,91,-99.99,,,0.03,weatherlink.com 1.10,2013-02-11 21:59:00,
2013-02-11 17:13:00,39.7,37.0,29.64,WNW,300,5.0,-999.0,91,-99.99,,,0.03,weatherlink.com 1.10,2013-02-11 22:13:00,
2013-02-11 17:28:00,39.7,37.0,29.64,NW,317,5.0,-999.0,91,-99.99,,,0.03,weatherlink.com 1.10,2013-02-11 22:28:00,
2013-02-11 17:43:00,39.7,37.0,29.64,West,281,6.0,-999.0,91,-99.99,,,0.03,weatherlink.com 1.10,2013-02-11 22:43:00,
2013-02-11 17:58:00,39.6,37.0,29.64,NNW,346,11.0,-999.0,91,-99.99,,,0.03,weatherlink.com 1.10,2013-02-11 22:58:00,
2013-02-11 18:14:00,39.3,37.0,29.64,NW,323,9.0,-999.0,92,-99.99,,,0.03,weatherlink.com 1.10,2013-02-11 23:14:00,
2013-02-11 18:28:00,39.1,37.0,29.64,WNW,290,5.0,-999.0,92,-99.99,,,0.03,weatherlink.com 1.10,2013-02-11 23:28:00,
2013-02-11 18:43:00,39.1,37.0,29.65,NNW,336,0.0,-999.0,93,-99.99,,,0.03,weatherlink.com 1.10,2013-02-11 23:43:00,
2013-02-11 18:58:00,38.9,37.0,29.65,NW,309,3.0,-999.0,93,-99.99,,,0.03,weatherlink.com 1.10,2013-02-11 23:58:00,
2013-02-11 19:13:00,38.9,37.0,29.65,NNW,333,6.0,-999.0,93,-99.99,,,0.03,weatherlink.com 1.10,2013-02-12 00:13:00,
2013-02-11 19:28:00,38.7,37.0,29.64,North,5,3.0,-999.0,93,-99.99,,,0.03,weatherlink.com 1.10,2013-02-12 00:28:00,
2013-02-11 19:43:00,38.7,37.0,29.66,NNW,338,5.0,-999.0,94,-99.99,,,0.03,weatherlink.com 1.10,2013-02-12 00:43:00,
2013-02-11 19:59:00,38.7,37.0,29.65,NW,316,3.0,-999.0,94,-99.99,,,0.03,weatherlink.com 1.10,2013-02-12 00:59:00,
2013-02-11 20:14:00,38.5,37.0,29.66,NW,314,2.0,-999.0,94,-99.99,,,0.03,weatherlink.com 1.10,2013-02-12 01:14:00,
2013-02-11 20:29:00,38.5,37.0,29.67,NNW,328,4.0,-999.0,94,-99.99,,,0.03,weatherlink.com 1.10,2013-02-12 01:29:00,
2013-02-11 20:43:00,37.8,36.0,29.71,NNE,20,3.0,-999.0,94,-99.99,,,0.04,weatherlink.com 1.10,2013-02-12 01:43:00,
2013-02-11 20:58:00,37.6,36.0,29.69,ENE,63,4.0,-999.0,94,-99.99,,,0.05,weatherlink.com 1.10,2013-02-12 01:58:00,
2013-02-11 21:13:00,37.7,36.0,29.70,East,99,2.0,-999.0,93,-99.99,,,0.05,weatherlink.com 1.10,2013-02-12 02:13:00,
2013-02-11 21:28:00,37.6,35.0,29.70,East,94,0.0,-999.0,91,-99.99,,,0.05,weatherlink.com 1.10,2013-02-12 02:28:00,
2013-02-11 21:43:00,37.4,35.0,29.70,East,82,4.0,-999.0,89,-99.99,,,0.05,weatherlink.com 1.10,2013-02-12 02:43:00,
2013-02-11 21:59:00,37.1,34.0,29.70,NE,34,9.0,-999.0,88,-99.99,,,0.05,weatherlink.com 1.10,2013-02-12 02:59:00,
2013-02-11 22:13:00,36.9,33.0,29.69,ESE,107,7.0,-999.0,85,-99.99,,,0.05,weatherlink.com 1.10,2013-02-12 03:13:00,
2013-02-11 22:28:00,36.4,33.0,29.69,NE,56,0.0,-999.0,86,-99.99,,,0.05,weatherlink.com 1.10,2013-02-12 03:28:00,
2013-02-11 22:43:00,36.1,32.0,29.69,ENE,74,0.0,-999.0,86,-99.99,,,0.05,weatherlink.com 1.10,2013-02-12 03:43:00,
2013-02-11 22:58:00,36.0,32.0,29.68,North,11,0.0,-999.0,86,-99.99,,,0.05,weatherlink.com 1.10,2013-02-12 03:58:00,
2013-02-11 23:14:00,35.5,32.0,29.68,North,11,0.0,-999.0,87,-99.99,,,0.05,weatherlink.com 1.10,2013-02-12 04:14:00,
2013-02-11 23:30:00,35.1,32.0,29.68,North,11,0.0,-999.0,88,-99.99,,,0.05,weatherlink.com 1.10,2013-02-12 04:30:00,
2013-02-11 23:44:00,35.1,32.0,29.68,NE,45,0.0,-999.0,89,-99.99,,,0.05,weatherlink.com 1.10,2013-02-12 04:44:00,